Show Low, AZ (85901)

10:56 MST le 20 octobre 2014 (GMT -0700)
Torreon | Change Station
CLOSE
Current Station
Stations météorologiques personnelles
Location: Show Low, AZ
Altitude: 1947 m
Stations météo à proximité

Alt. 1947 m 34.25 °N, 110.09 °W | Updated 1 minute ago

Ciel dégagé
Ciel dégagé
18.6 ° C
Paraît 18.6 ° C
N
0.0
Vent Variable Vent de SO
Gusts 8.0 km/h

Aujourd'hui
Haut(e) -- | Bas -- ° C
--% Risque de précip.
Hier
Haut(e) -- | Bas -- ° C
Precip. -- mm
6:29 AM 5:39 PM
Lune descendante, 10% visible
Pression 1023 hPa
Visibilité 16.1 Kilomètres
Nuages Ciel dégagé
Point de rosée 6 ° C
Humidité 45%
Précipitations 0 mm
Profondeur de la couche neigeuse Non disponible.
UV 6 sur 12
Pollen 4.30 sur 12
Qualité de l'air Non disponible.
Flu Activity No Activity
METAR KSOW 201735Z AUTO 07003KT 10SM CLR 14/04 A3022 RMK AO2

More Conditions Fewer Conditions

Pression 1023 hPa
Visibilité 16.1 Kilomètres
Nuages Ciel dégagé
Point de rosée 6 ° C
Humidité 45%
Précipitations 0 mm
Profondeur de la couche neigeuse Non disponible.
UV 6 sur 12
Pollen 4.30 sur 12
Qualité de l'air Non disponible.
Flu Activity No Activity
METAR KSOW 201735Z AUTO 07003KT 10SM CLR 14/04 A3022 RMK AO2

More Conditions Fewer Conditions

10-Day Weather Forecast

Almanac

Astronomie

Oct. 20, 2014 Lever Coucher
Temps réel 06:29 MST 17:39 MST
Crépuscule civil 06:04 MST 18:05 MST
Crépuscule nautique 05:35 MST 18:34 MST
Crépuscule astronomique 05:05 MST 19:03 MST
Lune 03:29 MST 15:57 MST
Durée de lumière visible 12h 00m
Longueur du jour
11h 10m
Lune descendante, 10% of the Moon is Illuminated
Aujourd'hui
Lune descendante
Oct 23
Nouveau
Oct 30
Premier quartier
Nov 6
Pleine lune
Nov 14
Dernier quartier

Extrêmes aujourd'hui

State Highs State Lows

Community

WunderPhotos

Upload Photos

1,763,446 Photos téléchargées !

WunderBlogs® & News

Nearby

Épaisseur de neige

Station Depth Altitude
Baldy 0 in 9125 ft
Maverick Fork 0 in 9200 ft
Wildcat 0 in 7850 ft
Promontory 0 in 7930 ft
Workman Creek 0 in 6900 ft

Activité sismique

Ville Distance Mag. Time & Date
No recent earthquake activity has been reported nearby.
Minimum magnitude displayed is 2.5.

Températures des eaux côtières

Lieu Température
Aucun rapport de station

Stations météo à proximité